Data for 09/14/2013

Time Sea-Level Adjusted Pressure Absolute Pressure Temperature Relative Humidity Dew Point   
(mb) (inHg) (mb) (inHg) (C) (F) (%) (C) (F)
00:05 1017 30.03 846 24.98 15.2 59.3 75 10.8 51.4
00:10 1017 30.03 846 24.98 15.2 59.3 74 10.7 51.2
00:15 1017 30.03 846 24.98 15.2 59.4 74 10.6 51.1
00:20 1017 30.03 846 24.98 15.3 59.5 73 10.6 51.1
00:25 1017 30.03 846 24.98 15.4 59.7 73 10.6 51.1
00:30 1017 30.03 846 24.98 15.4 59.7 73 10.7 51.3
00:35 1017 30.03 846 24.98 15.3 59.5 74 10.7 51.2
00:40 1017 30.03 846 24.98 15.2 59.3 75 10.8 51.4
00:45 1017 30.03 846 24.98 15 59.1 76 10.9 51.6
00:50 1017 30.03 846 24.98 14.8 58.6 78 11.1 52
00:55 1017 30.03 846 24.98 14.6 58.3 80 11.2 52.2
01:00 1017 30.03 846 24.98 14.5 58.1 80 11.2 52.1
01:05 1017 30.03 846 24.98 14.4 57.9 82 11.3 52.4
01:10 1017 30.03 846 24.98 14.3 57.8 82 11.2 52.2
01:15 1017 30.03 846 24.98 14.3 57.8 82 11.3 52.3
01:20 1017 30.03 846 24.98 14.4 57.8 82 11.3 52.4
01:25 1017 30.03 846 24.98 14.4 57.9 82 11.3 52.3
01:30 1017 30.03 846 24.98 14.4 57.8 81 11.2 52.2
01:35 1017 30.03 846 24.98 14.5 58 80 11.1 52
01:40 1017 30.03 846 24.98 14.5 58.1 79 11 51.8
01:45 1017 30.03 846 24.98 14.5 58.1 80 11.2 52.2
01:50 1017 30.03 846 24.98 14.5 58.1 80 11.1 52
01:55 1017 30.03 846 24.98 14.5 58.1 80 11.1 52.1
02:00 1017 30.03 846 24.98 14.4 57.8 81 11.2 52.1
02:05 1017 30.03 846 24.98 14.3 57.7 82 11.3 52.4
02:10 1017 30.03 846 24.98 14.3 57.7 81 11.2 52.1
02:15 1017 30.03 846 24.98 14.3 57.8 83 11.4 52.6
02:20 1017 30.03 846 24.98 14.3 57.8 83 11.5 52.6
02:25 1017 30.03 846 24.98 14.1 57.4 84 11.4 52.6
02:30 1017 30.03 846 24.98 14.1 57.4 84 11.5 52.7
02:35 1017 30.03 846 24.98 13.9 57.1 86 11.7 53
02:40 1017 30.03 846 24.98 13.8 56.8 87 11.7 53
02:45 1017 30.03 846 24.98 13.7 56.7 86 11.4 52.5
02:50 1017 30.03 846 24.98 13.8 56.8 87 11.7 53.1
02:55 1017 30.03 846 24.98 13.7 56.6 87 11.6 52.9
03:00 1017 30.03 847 25.01 13.7 56.6 87 11.5 52.8
03:05 1017 30.03 847 25.01 13.7 56.7 87 11.6 52.8
03:10 1017 30.03 847 25.01 13.8 56.8 86 11.5 52.7
03:15 1017 30.03 847 25.01 13.9 56.9 88 11.9 53.5
03:20 1017 30.03 847 25.01 13.6 56.4 90 11.9 53.4
03:25 1017 30.03 847 25.01 13.4 56.1 90 11.8 53.3
03:30 1017 30.03 847 25.01 13.4 56.2 89 11.7 53.1
03:35 1017 30.03 847 25.01 13.5 56.2 90 11.9 53.4
03:40 1017 30.03 847 25.01 13.4 56.1 90 11.9 53.3
03:45 1018 30.06 847 25.01 13.4 56 90 11.8 53.2
03:50 1018 30.06 847 25.01 13.4 56.1 90 11.8 53.2
03:55 1018 30.06 847 25.01 13.4 56.2 90 11.8 53.3
04:00 1018 30.06 847 25.01 13.4 56.1 90 11.8 53.2
04:05 1018 30.06 847 25.01 13.4 56.1 90 11.8 53.3
04:10 1018 30.06 847 25.01 13.3 56 91 11.9 53.4
04:15 1018 30.06 847 25.01 13.2 55.8 92 11.9 53.4
04:20 1018 30.06 847 25.01 13.2 55.7 92 11.9 53.5
04:25 1018 30.06 847 25.01 13.1 55.6 92 11.9 53.5
04:30 1018 30.06 847 25.01 13.1 55.5 92 11.9 53.4
04:35 1018 30.06 847 25.01 13.1 55.6 92 11.9 53.4
04:40 1018 30.06 847 25.01 13.1 55.6 92 11.9 53.4
04:45 1018 30.06 847 25.01 13.2 55.8 92 11.9 53.4
04:50 1018 30.06 848 25.04 13.2 55.8 92 12 53.6
04:55 1018 30.06 848 25.04 13.2 55.7 93 12 53.6
05:00 1018 30.06 847 25.01 13.1 55.6 93 11.9 53.4
05:05 1018 30.06 848 25.04 13.1 55.6 92 11.9 53.4
05:10 1018 30.06 847 25.01 13.1 55.6 92 11.9 53.3
05:15 1018 30.06 847 25.01 13.2 55.8 92 11.9 53.5
05:20 1018 30.06 848 25.04 13.1 55.6 92 11.9 53.4
05:25 1018 30.06 848 25.04 13.1 55.5 93 11.9 53.4
05:30 1018 30.06 848 25.04 13 55.5 92 11.8 53.3
05:35 1018 30.06 847 25.01 13.1 55.6 90 11.6 52.8
05:40 1018 30.06 848 25.04 13.2 55.8 91 11.9 53.4
05:45 1018 30.06 848 25.04 13.1 55.6 92 11.9 53.4
05:50 1019 30.09 848 25.04 13.1 55.5 93 11.9 53.4
05:55 1019 30.09 848 25.04 13.1 55.5 93 12 53.6
06:00 1018 30.06 848 25.04 12.9 55.3 93 11.9 53.4
06:05 1018 30.06 848 25.04 12.9 55.2 93 11.8 53.2
06:10 1019 30.09 848 25.04 13 55.4 93 11.8 53.3
06:15 1019 30.09 848 25.04 13 55.5 93 12 53.5
06:20 1019 30.09 848 25.04 13 55.4 93 12 53.5
06:25 1019 30.09 848 25.04 13 55.4 93 12 53.5
06:30 1019 30.09 848 25.04 13 55.5 94 12 53.6
06:35 1019 30.09 848 25.04 13 55.4 93 12 53.6
06:40 1019 30.09 848 25.04 13 55.3 94 12 53.5
06:45 1019 30.09 848 25.04 12.9 55.2 94 11.9 53.5
06:50 1019 30.09 848 25.04 13 55.3 93 11.9 53.5
06:55 1019 30.09 848 25.04 12.9 55.3 93 11.9 53.4
07:00 1019 30.09 848 25.04 12.9 55.3 93 11.9 53.4
07:05 1019 30.09 848 25.04 13 55.3 93 11.9 53.3
07:10 1019 30.09 848 25.04 13 55.3 92 11.8 53.2
07:15 1019 30.09 848 25.04 13.1 55.5 92 11.9 53.3
07:20 1019 30.09 848 25.04 13.1 55.5 92 11.8 53.3
07:25 1019 30.09 848 25.04 13 55.4 92 11.8 53.2
07:30 1019 30.09 848 25.04 13.1 55.6 92 11.8 53.2
07:35 1019 30.09 848 25.04 13.2 55.8 89 11.5 52.7
07:40 1019 30.09 848 25.04 13.5 56.4 89 11.8 53.2
07:45 1019 30.09 848 25.04 14 57.1 88 12 53.6
07:50 1019 30.09 848 25.04 14.2 57.6 88 12.2 54
07:55 1019 30.09 848 25.04 14.5 58 87 12.3 54.1
08:00 1019 30.09 848 25.04 14.3 57.8 88 12.4 54.3
08:05 1019 30.09 848 25.04 14.4 57.9 89 12.6 54.6
08:10 1019 30.09 848 25.04 14.5 58.1 88 12.6 54.6
08:15 1019 30.09 848 25.04 14.6 58.3 85 12.2 54
08:20 1019 30.09 848 25.04 14.6 58.3 86 12.3 54.2
08:25 1019 30.09 848 25.04 14.9 58.7 81 11.7 53.1
08:30 1019 30.09 848 25.04 15 59 82 12 53.7
08:35 1019 30.09 849 25.07 15 59 82 12 53.5
08:40 1019 30.09 849 25.07 15.1 59.2 83 12.2 54
08:45 1019 30.09 849 25.07 15.4 59.7 80 12 53.6
08:50 1019 30.09 849 25.07 15.4 59.7 81 12.1 53.8
08:55 1020 30.12 849 25.07 15.3 59.5 83 12.4 54.4
09:00 1020 30.12 849 25.07 15.4 59.6 83 12.6 54.6
09:05 1020 30.12 849 25.07 15.6 60.1 80 12.3 54.1
09:10 1020 30.12 849 25.07 16.2 61.1 78 12.4 54.3
09:15 1020 30.12 849 25.07 16.4 61.5 80 13 55.5
09:20 1020 30.12 849 25.07 16.5 61.7 74 11.9 53.5
09:25 1020 30.12 849 25.07 17 62.5 72 11.9 53.5
09:30 1020 30.12 849 25.07 17.3 63.1 69 11.6 52.8
09:35 1020 30.12 849 25.07 17.2 63 68 11.3 52.4
09:40 1020 30.12 849 25.07 17.4 63.4 66 11.1 51.9
09:45 1020 30.12 849 25.07 17.6 63.6 65 11 51.9
09:50 1020 30.12 849 25.07 17.3 63.1 65 10.6 51.2
09:55 1020 30.12 849 25.07 17.6 63.6 65 11 51.8
10:00 1020 30.12 849 25.07 17.7 63.9 65 11.1 52.1
10:05 1020 30.12 849 25.07 17.9 64.2 63 10.9 51.6
10:10 1020 30.12 849 25.07 17.9 64.2 63 10.9 51.6
10:15 1020 30.12 849 25.07 18 64.3 63 10.9 51.6
10:20 1020 30.12 849 25.07 18.1 64.6 62 10.9 51.6
10:25 1020 30.12 849 25.07 18.2 64.7 63 11.1 52
10:30 1020 30.12 849 25.07 18.4 65 61 10.8 51.4
10:35 1020 30.12 849 25.07 18.4 65.1 62 11.1 52
10:40 1020 30.12 849 25.07 18.4 65.1 61 10.9 51.6
10:45 1020 30.12 849 25.07 18.5 65.4 61 10.9 51.6
10:50 1020 30.12 849 25.07 18.4 65.2 60 10.7 51.3
10:55 1020 30.12 849 25.07 18.7 65.6 60 10.9 51.6
11:00 1020 30.12 849 25.07 18.6 65.5 60 10.9 51.7
11:05 1020 30.12 849 25.07 19 66.1 59 10.8 51.4
11:10 1020 30.12 849 25.07 18.8 65.8 60 10.9 51.7
11:15 1020 30.12 849 25.07 19.2 66.5 57 10.5 50.8
11:20 1020 30.12 849 25.07 19.7 67.5 55 10.7 51.2
11:25 1020 30.12 849 25.07 19.5 67.1 58 11.1 52.1
11:30 1020 30.12 849 25.07 19.7 67.5 59 11.5 52.7
11:35 1020 30.12 849 25.07 18.8 65.8 60 11 51.9
11:40 1020 30.12 849 25.07 18.7 65.7 60 10.8 51.4
11:45 1020 30.12 849 25.07 19.7 67.4 56 10.9 51.6
11:50 1020 30.12 849 25.07 20 67.9 56 11 51.8
11:55 1020 30.12 849 25.07 19.9 67.7 56 11 51.8
12:00 1020 30.12 849 25.07 20.4 68.8 54 10.8 51.5
12:05 1020 30.12 849 25.07 20.6 69 54 11.1 52
12:10 1020 30.12 849 25.07 20.3 68.6 55 11.1 51.9
12:15 1020 30.12 849 25.07 20.5 68.8 54 10.9 51.7
12:20 1020 30.12 849 25.07 19.9 67.9 58 11.5 52.6
12:25 1020 30.12 849 25.07 19.7 67.5 57 11 51.8
12:30 1020 30.12 849 25.07 19.5 67 59 11.2 52.2
12:35 1020 30.12 849 25.07 19.7 67.5 58 11.2 52.2
12:40 1020 30.12 849 25.07 19.6 67.2 59 11.5 52.7
12:45 1020 30.12 849 25.07 19.3 66.7 59 11 51.9
12:50 1020 30.12 849 25.07 19.1 66.5 58 10.9 51.6
12:55 1020 30.12 849 25.07 19.6 67.2 56 10.8 51.4
13:00 1020 30.12 849 25.07 19.8 67.6 58 11.5 52.7
13:05 1020 30.12 849 25.07 19.1 66.4 59 10.9 51.6
13:10 1020 30.12 849 25.07 19.5 67 55 10.2 50.4
13:15 1020 30.12 849 25.07 20.1 68.2 55 10.8 51.4
13:20 1020 30.12 849 25.07 20.6 69.1 53 10.8 51.5
13:25 1020 30.12 849 25.07 21.3 70.4 51 10.8 51.5
13:30 1020 30.12 849 25.07 21.6 70.9 50 10.8 51.5
13:35 1020 30.12 849 25.07 20.9 69.7 52 10.8 51.5
13:40 1020 30.12 849 25.07 21 69.9 51 10.6 51
13:45 1020 30.12 849 25.07 21.2 70.2 50 10.6 51.1
13:50 1020 30.12 849 25.07 21.2 70.1 50 10.5 50.9
13:55 1020 30.12 849 25.07 20.8 69.4 52 10.7 51.3
14:00 1020 30.12 849 25.07 20.8 69.4 51 10.4 50.7
14:05 1020 30.12 849 25.07 20.9 69.7 51 10.5 50.9
14:10 1020 30.12 849 25.07 21 69.7 51 10.7 51.3
14:15 1020 30.12 849 25.07 20.6 69 52 10.4 50.7
14:20 1020 30.12 849 25.07 21.1 69.9 49 10.1 50.2
14:25 1020 30.12 849 25.07 21.5 70.6 49 10.4 50.6
14:30 1020 30.12 849 25.07 21.6 70.8 49 10.6 51.1
14:35 1020 30.12 849 25.07 21.6 70.9 48 10.3 50.6
14:40 1020 30.12 849 25.07 21.7 71 49 10.6 51.1
14:45 1020 30.12 849 25.07 21.7 71.1 48 10.5 50.8
14:50 1020 30.12 849 25.07 21.7 71.1 48 10.4 50.6
14:55 1020 30.12 849 25.07 21.8 71.2 48 10.5 50.8
15:00 1020 30.12 849 25.07 21.5 70.7 49 10.5 51
15:05 1020 30.12 849 25.07 21.5 70.6 50 10.7 51.2
15:10 1020 30.12 849 25.07 21 69.9 53 11.3 52.3
15:15 1020 30.12 849 25.07 20.8 69.4 51 10.4 50.8
15:20 1020 30.12 849 25.07 21 69.7 51 10.6 51
15:25 1020 30.12 849 25.07 21.3 70.3 48 10.1 50.2
15:30 1020 30.12 849 25.07 21.9 71.4 47 10.2 50.4
15:35 1019 30.09 849 25.07 22 71.6 47 10.3 50.6
15:40 1019 30.09 849 25.07 22 71.5 47 10.3 50.5
15:45 1019 30.09 849 25.07 21.7 71.1 48 10.5 50.8
15:50 1020 30.12 849 25.07 21.7 71 49 10.6 51
15:55 1019 30.09 849 25.07 21.7 71.1 47 10.2 50.3
16:00 1019 30.09 849 25.07 21.7 71.1 47 10 49.9
16:05 1020 30.12 849 25.07 21.7 71.1 47 10.2 50.4
16:10 1020 30.12 849 25.07 21.7 71.1 47 10.1 50.1
16:15 1020 30.12 849 25.07 21.9 71.4 48 10.4 50.8
16:20 1020 30.12 849 25.07 21.3 70.3 50 10.7 51.3
16:25 1020 30.12 849 25.07 21 69.7 52 11 51.7
16:30 1020 30.12 849 25.07 20.9 69.5 52 10.7 51.2
16:35 1020 30.12 849 25.07 21 69.7 53 11.1 51.9
16:40 1020 30.12 849 25.07 20.7 69.3 53 10.9 51.7
16:45 1020 30.12 849 25.07 20.6 69 50 10 50
16:50 1020 30.12 849 25.07 20.3 68.5 49 9.5 49
16:55 1020 30.12 849 25.07 20.2 68.4 48 9.1 48.4
17:00 1020 30.12 849 25.07 20.2 68.3 48 9.1 48.4
17:05 1020 30.12 849 25.07 20.2 68.4 48 9 48.2
17:10 1020 30.12 849 25.07 20.2 68.3 49 9.1 48.5
17:15 1020 30.12 849 25.07 20 68.1 51 9.7 49.5
17:20 1020 30.12 849 25.07 19.9 67.9 51 9.5 49.1
17:25 1020 30.12 849 25.07 19.7 67.5 52 9.7 49.5
17:30 1020 30.12 849 25.07 19.6 67.3 53 9.8 49.7
17:35 1020 30.12 849 25.07 19.4 67 54 9.9 49.8
17:40 1020 30.12 849 25.07 19.3 66.8 54 9.8 49.6
17:45 1020 30.12 849 25.07 19.3 66.7 53 9.5 49.1
17:50 1020 30.12 849 25.07 19.3 66.7 52 9.3 48.7
17:55 1020 30.12 849 25.07 19.2 66.6 53 9.5 49
18:00 1020 30.12 849 25.07 19.2 66.6 53 9.5 49
18:05 1020 30.12 849 25.07 19.1 66.5 54 9.7 49.4
18:10 1020 30.12 849 25.07 19.1 66.3 54 9.6 49.3
18:15 1020 30.12 849 25.07 19 66.2 55 9.8 49.7
18:20 1020 30.12 849 25.07 18.9 66.1 55 9.9 49.8
18:25 1020 30.12 849 25.07 18.9 65.9 55 9.9 49.8
18:30 1020 30.12 849 25.07 18.8 65.8 55 9.8 49.6
18:35 1020 30.12 849 25.07 18.8 65.8 56 9.8 49.6
18:40 1020 30.12 850 25.1 18.7 65.7 57 10.1 50.1
18:45 1021 30.15 850 25.1 18.1 64.5 58 9.7 49.5
18:50 1021 30.15 850 25.1 17.3 63.1 60 9.5 49.2
18:55 1021 30.15 850 25.1 16.9 62.5 63 9.9 49.9
19:00 1021 30.15 850 25.1 16.5 61.7 66 10.2 50.4
19:05 1021 30.15 850 25.1 16.2 61.2 68 10.3 50.6
19:10 1021 30.15 850 25.1 16 60.8 69 10.5 50.8
19:15 1021 30.15 850 25.1 15.8 60.5 70 10.5 50.9
19:20 1021 30.15 851 25.13 15.7 60.3 71 10.6 51.1
19:25 1021 30.15 851 25.13 15.6 60.1 72 10.7 51.2
19:30 1021 30.15 851 25.13 15.6 60.1 73 10.8 51.4
19:35 1021 30.15 851 25.13 15.7 60.2 73 10.8 51.5
19:40 1021 30.15 851 25.13 15.7 60.2 73 10.8 51.5
19:45 1021 30.15 851 25.13 15.7 60.3 73 10.8 51.5
19:50 1021 30.15 851 25.13 15.9 60.6 72 10.9 51.6
19:55 1022 30.18 851 25.13 16 60.8 72 11 51.8
20:00 1022 30.18 851 25.13 16 60.7 72 11.1 51.9
20:05 1022 30.18 851 25.13 15.9 60.6 73 11.2 52.1
20:10 1022 30.18 851 25.13 15.8 60.5 74 11.2 52.1
20:15 1022 30.18 851 25.13 15.8 60.5 74 11.2 52.2
20:20 1022 30.18 851 25.13 15.8 60.4 74 11.2 52.2
20:25 1022 30.18 851 25.13 15.7 60.3 74 11.1 52.1
20:30 1022 30.18 851 25.13 15.7 60.2 75 11.2 52.2
20:35 1022 30.18 851 25.13 15.6 60.1 74 11 51.9
20:40 1022 30.18 851 25.13 15.7 60.2 73 10.8 51.5
20:45 1022 30.18 851 25.13 15.7 60.3 73 10.9 51.6
20:50 1022 30.18 851 25.13 15.7 60.3 72 10.7 51.2
20:55 1022 30.18 851 25.13 15.7 60.2 72 10.6 51.1
21:00 1022 30.18 851 25.13 15.6 60.2 71 10.4 50.7
21:05 1022 30.18 851 25.13 15.7 60.2 70 10.2 50.4
21:10 1022 30.18 851 25.13 15.7 60.2 69 10.1 50.3
21:15 1022 30.18 851 25.13 15.7 60.3 69 10.1 50.1
21:20 1022 30.18 851 25.13 15.7 60.2 69 10.1 50.2
21:25 1022 30.18 851 25.13 15.6 60 69 9.9 49.9
21:30 1022 30.18 851 25.13 15.6 60 68 9.7 49.5
21:35 1022 30.18 851 25.13 15.6 60.1 68 9.8 49.6
21:40 1022 30.18 851 25.13 15.6 60.1 67 9.6 49.3
21:45 1022 30.18 851 25.13 15.7 60.2 65 9.3 48.7
21:50 1022 30.18 851 25.13 15.7 60.3 66 9.5 49.1
21:55 1022 30.18 851 25.13 15.7 60.2 65 9.3 48.7
22:00 1022 30.18 851 25.13 15.7 60.2 65 9.2 48.5
22:05 1022 30.18 851 25.13 15.7 60.3 64 8.9 48.1
22:10 1022 30.18 851 25.13 15.8 60.4 62 8.7 47.6
22:15 1022 30.18 851 25.13 15.8 60.4 62 8.5 47.4
22:20 1022 30.18 851 25.13 15.8 60.4 62 8.5 47.4
22:25 1022 30.18 851 25.13 15.8 60.4 61 8.3 47
22:30 1022 30.18 851 25.13 15.8 60.4 61 8.4 47.1
22:35 1022 30.18 851 25.13 15.7 60.3 61 8.3 47
22:40 1022 30.18 851 25.13 15.7 60.3 61 8.2 46.8
22:45 1022 30.18 851 25.13 15.7 60.2 61 8.4 47.1
22:50 1022 30.18 851 25.13 15.6 60 62 8.4 47.1
22:55 1022 30.18 851 25.13 15.5 59.9 62 8.3 46.9
23:00 1022 30.18 851 25.13 15.5 59.9 62 8.4 47.1
23:05 1022 30.18 851 25.13 15.5 59.8 62 8.4 47
23:10 1022 30.18 851 25.13 15.5 59.8 63 8.4 47.2
23:15 1022 30.18 851 25.13 15.4 59.7 63 8.4 47.2
23:20 1022 30.18 851 25.13 15.4 59.8 63 8.5 47.2
23:25 1022 30.18 851 25.13 15.4 59.8 63 8.6 47.5
23:30 1022 30.18 851 25.13 15.4 59.7 64 8.6 47.4
23:35 1022 30.18 851 25.13 15.4 59.7 64 8.7 47.7
23:40 1022 30.18 851 25.13 15.3 59.6 64 8.7 47.7
23:45 1022 30.18 851 25.13 15.3 59.6 65 8.8 47.8
23:50 1022 30.18 851 25.13 15.3 59.5 65 8.9 48
23:55 1022 30.18 851 25.13 15.2 59.4 65 8.8 47.9
24:00 1022 30.18 851 25.13 15.3 59.5 65 8.9 48